sensor_id;sensor_type;location;lat;lon;timestamp;P1;durP1;ratioP1;P2;durP2;ratioP2
5303;SDS011;2674;49.722;10.892;2023-06-14T00:00:40;5.27;;;4.43;;
5303;SDS011;2674;49.722;10.892;2023-06-14T00:03:09;5.27;;;4.70;;
5303;SDS011;2674;49.722;10.892;2023-06-14T00:05:37;7.20;;;4.87;;
5303;SDS011;2674;49.722;10.892;2023-06-14T00:08:06;6.70;;;4.23;;
5303;SDS011;2674;49.722;10.892;2023-06-14T00:10:36;5.43;;;4.60;;
5303;SDS011;2674;49.722;10.892;2023-06-14T00:13:04;9.83;;;5.30;;
5303;SDS011;2674;49.722;10.892;2023-06-14T00:15:33;6.70;;;4.97;;
5303;SDS011;2674;49.722;10.892;2023-06-14T00:17:59;5.20;;;4.70;;
5303;SDS011;2674;49.722;10.892;2023-06-14T00:20:29;5.33;;;4.83;;
5303;SDS011;2674;49.722;10.892;2023-06-14T00:22:57;6.87;;;4.90;;
5303;SDS011;2674;49.722;10.892;2023-06-14T00:25:23;8.03;;;4.73;;
5303;SDS011;2674;49.722;10.892;2023-06-14T00:27:53;5.93;;;5.00;;
5303;SDS011;2674;49.722;10.892;2023-06-14T00:30:19;9.80;;;5.20;;
5303;SDS011;2674;49.722;10.892;2023-06-14T00:32:45;5.93;;;4.70;;
5303;SDS011;2674;49.722;10.892;2023-06-14T00:35:12;5.90;;;3.93;;
5303;SDS011;2674;49.722;10.892;2023-06-14T00:37:38;6.40;;;5.07;;
5303;SDS011;2674;49.722;10.892;2023-06-14T00:40:04;5.43;;;4.93;;
5303;SDS011;2674;49.722;10.892;2023-06-14T00:42:31;11.43;;;5.50;;
5303;SDS011;2674;49.722;10.892;2023-06-14T00:44:57;5.47;;;4.00;;
5303;SDS011;2674;49.722;10.892;2023-06-14T00:47:23;7.57;;;4.93;;
5303;SDS011;2674;49.722;10.892;2023-06-14T00:49:53;5.10;;;4.47;;
5303;SDS011;2674;49.722;10.892;2023-06-14T00:52:20;8.70;;;5.03;;
5303;SDS011;2674;49.722;10.892;2023-06-14T00:54:47;7.70;;;4.50;;
5303;SDS011;2674;49.722;10.892;2023-06-14T00:57:13;6.50;;;4.93;;
5303;SDS011;2674;49.722;10.892;2023-06-14T00:59:44;6.77;;;4.40;;
5303;SDS011;2674;49.722;10.892;2023-06-14T01:02:12;6.33;;;4.47;;
5303;SDS011;2674;49.722;10.892;2023-06-14T01:04:43;8.27;;;4.90;;
5303;SDS011;2674;49.722;10.892;2023-06-14T01:07:34;4.47;;;4.17;;
5303;SDS011;2674;49.722;10.892;2023-06-14T01:10:51;5.57;;;4.30;;
5303;SDS011;2674;49.722;10.892;2023-06-14T01:16:13;15.03;;;4.03;;
5303;SDS011;2674;49.722;10.892;2023-06-14T01:18:40;6.53;;;4.30;;
5303;SDS011;2674;49.722;10.892;2023-06-14T01:21:19;6.03;;;4.10;;
5303;SDS011;2674;49.722;10.892;2023-06-14T01:23:49;7.63;;;5.20;;
5303;SDS011;2674;49.722;10.892;2023-06-14T01:26:18;4.97;;;4.37;;
5303;SDS011;2674;49.722;10.892;2023-06-14T01:28:45;7.53;;;4.97;;
5303;SDS011;2674;49.722;10.892;2023-06-14T01:31:16;8.33;;;4.60;;
5303;SDS011;2674;49.722;10.892;2023-06-14T01:33:43;5.00;;;4.50;;
5303;SDS011;2674;49.722;10.892;2023-06-14T01:36:10;4.40;;;4.00;;
5303;SDS011;2674;49.722;10.892;2023-06-14T01:38:37;5.90;;;4.60;;
5303;SDS011;2674;49.722;10.892;2023-06-14T01:41:03;6.50;;;4.57;;
5303;SDS011;2674;49.722;10.892;2023-06-14T01:43:30;7.37;;;4.40;;
5303;SDS011;2674;49.722;10.892;2023-06-14T01:45:56;4.40;;;4.00;;
5303;SDS011;2674;49.722;10.892;2023-06-14T01:48:25;6.70;;;4.20;;
5303;SDS011;2674;49.722;10.892;2023-06-14T01:50:51;5.50;;;5.00;;
5303;SDS011;2674;49.722;10.892;2023-06-14T01:53:17;7.77;;;4.97;;
5303;SDS011;2674;49.722;10.892;2023-06-14T01:55:43;5.97;;;4.30;;
5303;SDS011;2674;49.722;10.892;2023-06-14T01:58:13;7.27;;;4.87;;
5303;SDS011;2674;49.722;10.892;2023-06-14T02:00:41;6.50;;;4.80;;
5303;SDS011;2674;49.722;10.892;2023-06-14T02:03:08;6.73;;;4.60;;
5303;SDS011;2674;49.722;10.892;2023-06-14T02:05:34;9.83;;;5.20;;
5303;SDS011;2674;49.722;10.892;2023-06-14T02:08:00;5.17;;;4.67;;
5303;SDS011;2674;49.722;10.892;2023-06-14T02:10:26;7.63;;;5.60;;
5303;SDS011;2674;49.722;10.892;2023-06-14T02:12:52;11.33;;;4.80;;
5303;SDS011;2674;49.722;10.892;2023-06-14T02:15:17;7.17;;;4.97;;
5303;SDS011;2674;49.722;10.892;2023-06-14T02:17:45;13.53;;;5.90;;
5303;SDS011;2674;49.722;10.892;2023-06-14T02:20:12;6.20;;;4.60;;
5303;SDS011;2674;49.722;10.892;2023-06-14T02:22:38;5.37;;;4.87;;
5303;SDS011;2674;49.722;10.892;2023-06-14T02:25:04;6.37;;;5.00;;
5303;SDS011;2674;49.722;10.892;2023-06-14T02:27:31;5.27;;;4.33;;
5303;SDS011;2674;49.722;10.892;2023-06-14T02:29:57;7.93;;;5.60;;
5303;SDS011;2674;49.722;10.892;2023-06-14T02:32:23;5.27;;;4.77;;
5303;SDS011;2674;49.722;10.892;2023-06-14T02:34:49;9.33;;;4.70;;
5303;SDS011;2674;49.722;10.892;2023-06-14T02:37:18;8.53;;;5.43;;
5303;SDS011;2674;49.722;10.892;2023-06-14T02:39:44;5.77;;;5.27;;
5303;SDS011;2674;49.722;10.892;2023-06-14T02:42:10;6.10;;;5.33;;
5303;SDS011;2674;49.722;10.892;2023-06-14T02:44:36;7.50;;;5.33;;
5303;SDS011;2674;49.722;10.892;2023-06-14T02:47:02;7.93;;;5.17;;
5303;SDS011;2674;49.722;10.892;2023-06-14T02:49:28;5.73;;;5.00;;
5303;SDS011;2674;49.722;10.892;2023-06-14T02:51:54;7.63;;;6.10;;
5303;SDS011;2674;49.722;10.892;2023-06-14T02:54:21;13.60;;;5.90;;
5303;SDS011;2674;49.722;10.892;2023-06-14T02:56:46;7.10;;;5.40;;
5303;SDS011;2674;49.722;10.892;2023-06-14T02:59:12;5.23;;;4.73;;
5303;SDS011;2674;49.722;10.892;2023-06-14T03:01:39;5.27;;;4.73;;
5303;SDS011;2674;49.722;10.892;2023-06-14T03:04:06;13.80;;;6.10;;
5303;SDS011;2674;49.722;10.892;2023-06-14T03:06:33;8.00;;;6.30;;
5303;SDS011;2674;49.722;10.892;2023-06-14T03:08:59;9.80;;;6.83;;
5303;SDS011;2674;49.722;10.892;2023-06-14T03:11:29;5.60;;;5.07;;
5303;SDS011;2674;49.722;10.892;2023-06-14T03:13:56;6.97;;;5.77;;
5303;SDS011;2674;49.722;10.892;2023-06-14T03:16:22;10.17;;;5.33;;
5303;SDS011;2674;49.722;10.892;2023-06-14T03:18:52;6.80;;;5.50;;
5303;SDS011;2674;49.722;10.892;2023-06-14T03:21:19;14.63;;;5.63;;
5303;SDS011;2674;49.722;10.892;2023-06-14T03:23:45;8.57;;;5.10;;
5303;SDS011;2674;49.722;10.892;2023-06-14T03:26:12;8.83;;;6.07;;
5303;SDS011;2674;49.722;10.892;2023-06-14T03:28:39;6.03;;;4.93;;
5303;SDS011;2674;49.722;10.892;2023-06-14T03:31:05;6.70;;;5.10;;
5303;SDS011;2674;49.722;10.892;2023-06-14T03:33:31;13.73;;;5.70;;
5303;SDS011;2674;49.722;10.892;2023-06-14T03:35:57;8.50;;;5.40;;
5303;SDS011;2674;49.722;10.892;2023-06-14T03:38:23;7.10;;;5.07;;
5303;SDS011;2674;49.722;10.892;2023-06-14T03:40:48;9.93;;;5.07;;
5303;SDS011;2674;49.722;10.892;2023-06-14T03:43:14;6.30;;;5.33;;
5303;SDS011;2674;49.722;10.892;2023-06-14T03:45:40;8.60;;;5.33;;
5303;SDS011;2674;49.722;10.892;2023-06-14T03:48:06;6.53;;;5.97;;
5303;SDS011;2674;49.722;10.892;2023-06-14T03:50:33;5.93;;;5.33;;
5303;SDS011;2674;49.722;10.892;2023-06-14T03:53:00;6.17;;;5.20;;
5303;SDS011;2674;49.722;10.892;2023-06-14T03:55:26;9.20;;;4.87;;
5303;SDS011;2674;49.722;10.892;2023-06-14T03:57:52;11.50;;;5.50;;
5303;SDS011;2674;49.722;10.892;2023-06-14T04:00:18;11.13;;;5.33;;
5303;SDS011;2674;49.722;10.892;2023-06-14T04:02:44;10.07;;;5.47;;
5303;SDS011;2674;49.722;10.892;2023-06-14T04:05:10;8.63;;;4.87;;
5303;SDS011;2674;49.722;10.892;2023-06-14T04:07:36;13.17;;;4.97;;
5303;SDS011;2674;49.722;10.892;2023-06-14T04:10:08;7.50;;;5.30;;
5303;SDS011;2674;49.722;10.892;2023-06-14T04:12:34;10.90;;;5.70;;
5303;SDS011;2674;49.722;10.892;2023-06-14T04:14:59;5.73;;;4.80;;
5303;SDS011;2674;49.722;10.892;2023-06-14T04:17:26;5.00;;;4.30;;
5303;SDS011;2674;49.722;10.892;2023-06-14T04:19:52;5.23;;;4.67;;
5303;SDS011;2674;49.722;10.892;2023-06-14T04:22:17;8.20;;;5.90;;
5303;SDS011;2674;49.722;10.892;2023-06-14T04:24:43;7.00;;;6.30;;
5303;SDS011;2674;49.722;10.892;2023-06-14T04:27:10;7.33;;;5.63;;
5303;SDS011;2674;49.722;10.892;2023-06-14T04:29:35;13.33;;;5.97;;
5303;SDS011;2674;49.722;10.892;2023-06-14T04:32:01;8.80;;;5.87;;
5303;SDS011;2674;49.722;10.892;2023-06-14T04:34:27;7.20;;;5.17;;
5303;SDS011;2674;49.722;10.892;2023-06-14T04:36:57;7.10;;;5.63;;
5303;SDS011;2674;49.722;10.892;2023-06-14T04:39:25;7.60;;;5.60;;
5303;SDS011;2674;49.722;10.892;2023-06-14T04:41:51;7.30;;;5.77;;
5303;SDS011;2674;49.722;10.892;2023-06-14T04:44:21;8.73;;;5.90;;
5303;SDS011;2674;49.722;10.892;2023-06-14T04:46:55;14.20;;;6.33;;
5303;SDS011;2674;49.722;10.892;2023-06-14T04:49:24;10.07;;;6.17;;
5303;SDS011;2674;49.722;10.892;2023-06-14T04:51:52;6.73;;;5.73;;
5303;SDS011;2674;49.722;10.892;2023-06-14T04:54:22;5.40;;;4.93;;
5303;SDS011;2674;49.722;10.892;2023-06-14T04:56:50;6.17;;;5.33;;
5303;SDS011;2674;49.722;10.892;2023-06-14T04:59:16;7.00;;;6.30;;
5303;SDS011;2674;49.722;10.892;2023-06-14T05:01:42;7.10;;;5.77;;
5303;SDS011;2674;49.722;10.892;2023-06-14T05:04:19;8.30;;;6.20;;
5303;SDS011;2674;49.722;10.892;2023-06-14T05:06:47;5.40;;;4.90;;
5303;SDS011;2674;49.722;10.892;2023-06-14T05:09:13;6.27;;;4.93;;
5303;SDS011;2674;49.722;10.892;2023-06-14T05:11:43;6.43;;;4.70;;
5303;SDS011;2674;49.722;10.892;2023-06-14T05:14:10;12.23;;;4.73;;
5303;SDS011;2674;49.722;10.892;2023-06-14T05:16:36;5.60;;;5.00;;
5303;SDS011;2674;49.722;10.892;2023-06-14T05:19:02;6.00;;;4.80;;
5303;SDS011;2674;49.722;10.892;2023-06-14T05:21:30;7.10;;;5.20;;
5303;SDS011;2674;49.722;10.892;2023-06-14T05:23:57;5.17;;;4.77;;
5303;SDS011;2674;49.722;10.892;2023-06-14T05:26:22;10.93;;;6.20;;
5303;SDS011;2674;49.722;10.892;2023-06-14T05:28:50;7.73;;;4.13;;
5303;SDS011;2674;49.722;10.892;2023-06-14T05:31:17;4.80;;;4.30;;
5303;SDS011;2674;49.722;10.892;2023-06-14T05:33:43;5.70;;;3.97;;
5303;SDS011;2674;49.722;10.892;2023-06-14T05:36:09;10.73;;;5.30;;
5303;SDS011;2674;49.722;10.892;2023-06-14T05:38:35;6.83;;;4.87;;
5303;SDS011;2674;49.722;10.892;2023-06-14T05:41:01;4.90;;;4.50;;
5303;SDS011;2674;49.722;10.892;2023-06-14T05:43:27;7.10;;;5.23;;
5303;SDS011;2674;49.722;10.892;2023-06-14T05:45:52;6.30;;;5.00;;
5303;SDS011;2674;49.722;10.892;2023-06-14T05:48:18;5.23;;;4.73;;
5303;SDS011;2674;49.722;10.892;2023-06-14T05:50:44;5.60;;;4.97;;
5303;SDS011;2674;49.722;10.892;2023-06-14T05:53:10;4.93;;;4.40;;
5303;SDS011;2674;49.722;10.892;2023-06-14T05:55:36;4.90;;;4.50;;
5303;SDS011;2674;49.722;10.892;2023-06-14T05:58:02;6.07;;;4.00;;
5303;SDS011;2674;49.722;10.892;2023-06-14T06:00:27;6.70;;;4.20;;
5303;SDS011;2674;49.722;10.892;2023-06-14T06:02:53;8.90;;;5.73;;
5303;SDS011;2674;49.722;10.892;2023-06-14T06:05:22;10.40;;;4.77;;
5303;SDS011;2674;49.722;10.892;2023-06-14T06:07:48;5.77;;;5.07;;
5303;SDS011;2674;49.722;10.892;2023-06-14T06:10:14;9.07;;;5.20;;
5303;SDS011;2674;49.722;10.892;2023-06-14T06:12:43;9.30;;;4.93;;
5303;SDS011;2674;49.722;10.892;2023-06-14T06:15:10;6.33;;;4.70;;
5303;SDS011;2674;49.722;10.892;2023-06-14T06:17:39;8.40;;;4.60;;
5303;SDS011;2674;49.722;10.892;2023-06-14T06:20:05;6.70;;;4.00;;
5303;SDS011;2674;49.722;10.892;2023-06-14T06:22:33;5.13;;;4.10;;
5303;SDS011;2674;49.722;10.892;2023-06-14T06:24:59;9.70;;;4.50;;
5303;SDS011;2674;49.722;10.892;2023-06-14T06:27:25;5.47;;;4.93;;
5303;SDS011;2674;49.722;10.892;2023-06-14T06:29:51;5.47;;;4.80;;
5303;SDS011;2674;49.722;10.892;2023-06-14T06:32:18;9.20;;;4.07;;
5303;SDS011;2674;49.722;10.892;2023-06-14T06:34:44;9.23;;;4.40;;
5303;SDS011;2674;49.722;10.892;2023-06-14T06:37:10;5.63;;;4.27;;
5303;SDS011;2674;49.722;10.892;2023-06-14T06:39:36;7.50;;;4.40;;
5303;SDS011;2674;49.722;10.892;2023-06-14T06:42:02;6.80;;;4.40;;
5303;SDS011;2674;49.722;10.892;2023-06-14T06:44:28;4.00;;;3.70;;
5303;SDS011;2674;49.722;10.892;2023-06-14T06:46:54;7.13;;;4.13;;
5303;SDS011;2674;49.722;10.892;2023-06-14T06:49:19;8.60;;;5.70;;
5303;SDS011;2674;49.722;10.892;2023-06-14T06:51:58;7.57;;;4.07;;
5303;SDS011;2674;49.722;10.892;2023-06-14T06:54:28;6.70;;;3.93;;
5303;SDS011;2674;49.722;10.892;2023-06-14T06:56:54;5.73;;;4.23;;
5303;SDS011;2674;49.722;10.892;2023-06-14T06:59:21;5.43;;;3.87;;
5303;SDS011;2674;49.722;10.892;2023-06-14T07:01:47;8.73;;;4.10;;
5303;SDS011;2674;49.722;10.892;2023-06-14T07:04:13;4.50;;;4.10;;
5303;SDS011;2674;49.722;10.892;2023-06-14T07:06:39;4.63;;;4.07;;
5303;SDS011;2674;49.722;10.892;2023-06-14T07:09:05;4.70;;;4.20;;
5303;SDS011;2674;49.722;10.892;2023-06-14T07:11:33;9.83;;;4.43;;
5303;SDS011;2674;49.722;10.892;2023-06-14T07:13:59;8.57;;;4.43;;
5303;SDS011;2674;49.722;10.892;2023-06-14T07:16:25;9.10;;;3.80;;
5303;SDS011;2674;49.722;10.892;2023-06-14T07:18:51;6.33;;;4.13;;
5303;SDS011;2674;49.722;10.892;2023-06-14T07:21:17;5.43;;;4.33;;
5303;SDS011;2674;49.722;10.892;2023-06-14T07:23:43;4.27;;;3.87;;
5303;SDS011;2674;49.722;10.892;2023-06-14T07:26:09;7.23;;;4.60;;
5303;SDS011;2674;49.722;10.892;2023-06-14T07:28:35;3.90;;;3.50;;
5303;SDS011;2674;49.722;10.892;2023-06-14T07:31:01;4.90;;;3.67;;
5303;SDS011;2674;49.722;10.892;2023-06-14T07:33:27;16.03;;;3.70;;
5303;SDS011;2674;49.722;10.892;2023-06-14T07:35:53;4.53;;;3.50;;
5303;SDS011;2674;49.722;10.892;2023-06-14T07:38:19;4.90;;;3.50;;
5303;SDS011;2674;49.722;10.892;2023-06-14T07:40:45;5.80;;;3.70;;
5303;SDS011;2674;49.722;10.892;2023-06-14T07:43:11;4.40;;;4.00;;
5303;SDS011;2674;49.722;10.892;2023-06-14T07:45:37;3.63;;;3.33;;
5303;SDS011;2674;49.722;10.892;2023-06-14T07:48:03;7.80;;;3.77;;
5303;SDS011;2674;49.722;10.892;2023-06-14T07:50:29;4.73;;;3.00;;
5303;SDS011;2674;49.722;10.892;2023-06-14T07:52:56;3.50;;;3.20;;
5303;SDS011;2674;49.722;10.892;2023-06-14T07:55:21;3.97;;;3.67;;
5303;SDS011;2674;49.722;10.892;2023-06-14T07:57:47;6.93;;;3.63;;
5303;SDS011;2674;49.722;10.892;2023-06-14T08:00:13;7.03;;;3.13;;
5303;SDS011;2674;49.722;10.892;2023-06-14T08:02:43;9.00;;;2.80;;
5303;SDS011;2674;49.722;10.892;2023-06-14T08:05:10;10.13;;;3.37;;
5303;SDS011;2674;49.722;10.892;2023-06-14T08:07:37;4.10;;;3.70;;
5303;SDS011;2674;49.722;10.892;2023-06-14T08:10:06;5.40;;;2.93;;
5303;SDS011;2674;49.722;10.892;2023-06-14T08:12:32;4.33;;;3.70;;
5303;SDS011;2674;49.722;10.892;2023-06-14T08:14:59;3.70;;;2.90;;
5303;SDS011;2674;49.722;10.892;2023-06-14T08:17:25;6.37;;;3.43;;
5303;SDS011;2674;49.722;10.892;2023-06-14T08:19:51;6.63;;;3.33;;
5303;SDS011;2674;49.722;10.892;2023-06-14T08:22:19;3.30;;;3.10;;
5303;SDS011;2674;49.722;10.892;2023-06-14T08:24:47;4.00;;;3.60;;
5303;SDS011;2674;49.722;10.892;2023-06-14T08:27:12;5.23;;;3.00;;
5303;SDS011;2674;49.722;10.892;2023-06-14T08:29:38;7.63;;;3.47;;
5303;SDS011;2674;49.722;10.892;2023-06-14T08:32:06;7.83;;;3.10;;
5303;SDS011;2674;49.722;10.892;2023-06-14T08:34:32;3.80;;;3.40;;
5303;SDS011;2674;49.722;10.892;2023-06-14T08:36:57;4.17;;;2.53;;
5303;SDS011;2674;49.722;10.892;2023-06-14T08:39:23;4.10;;;3.50;;
5303;SDS011;2674;49.722;10.892;2023-06-14T08:41:49;3.67;;;3.33;;
5303;SDS011;2674;49.722;10.892;2023-06-14T08:44:17;5.20;;;3.20;;
5303;SDS011;2674;49.722;10.892;2023-06-14T08:46:43;5.17;;;3.20;;
5303;SDS011;2674;49.722;10.892;2023-06-14T08:49:12;4.27;;;2.90;;
5303;SDS011;2674;49.722;10.892;2023-06-14T08:51:39;3.10;;;2.70;;
5303;SDS011;2674;49.722;10.892;2023-06-14T08:54:05;3.67;;;3.33;;
5303;SDS011;2674;49.722;10.892;2023-06-14T08:56:32;5.80;;;2.53;;
5303;SDS011;2674;49.722;10.892;2023-06-14T08:58:59;3.40;;;3.10;;
5303;SDS011;2674;49.722;10.892;2023-06-14T09:01:35;8.37;;;3.83;;
5303;SDS011;2674;49.722;10.892;2023-06-14T09:04:02;3.87;;;3.57;;
5303;SDS011;2674;49.722;10.892;2023-06-14T09:06:30;4.47;;;3.30;;
5303;SDS011;2674;49.722;10.892;2023-06-14T09:08:56;4.30;;;3.43;;
5303;SDS011;2674;49.722;10.892;2023-06-14T09:11:23;5.63;;;3.37;;
5303;SDS011;2674;49.722;10.892;2023-06-14T09:13:49;6.13;;;3.13;;
5303;SDS011;2674;49.722;10.892;2023-06-14T09:16:15;12.10;;;3.43;;
5303;SDS011;2674;49.722;10.892;2023-06-14T09:18:45;6.00;;;3.17;;
5303;SDS011;2674;49.722;10.892;2023-06-14T09:21:15;2.90;;;2.27;;
5303;SDS011;2674;49.722;10.892;2023-06-14T09:23:42;4.10;;;3.10;;
5303;SDS011;2674;49.722;10.892;2023-06-14T09:26:11;4.30;;;2.97;;
5303;SDS011;2674;49.722;10.892;2023-06-14T09:28:48;3.87;;;2.90;;
5303;SDS011;2674;49.722;10.892;2023-06-14T09:31:15;3.40;;;3.00;;
5303;SDS011;2674;49.722;10.892;2023-06-14T09:33:46;5.53;;;2.73;;
5303;SDS011;2674;49.722;10.892;2023-06-14T09:36:17;4.50;;;3.37;;
5303;SDS011;2674;49.722;10.892;2023-06-14T09:39:09;7.30;;;4.00;;
5303;SDS011;2674;49.722;10.892;2023-06-14T09:44:00;2.90;;;2.70;;
5303;SDS011;2674;49.722;10.892;2023-06-14T09:46:28;7.30;;;2.93;;
5303;SDS011;2674;49.722;10.892;2023-06-14T09:48:55;3.57;;;2.80;;
5303;SDS011;2674;49.722;10.892;2023-06-14T09:51:22;3.33;;;2.90;;
5303;SDS011;2674;49.722;10.892;2023-06-14T09:53:49;5.63;;;2.80;;
5303;SDS011;2674;49.722;10.892;2023-06-14T09:56:21;3.80;;;2.80;;
5303;SDS011;2674;49.722;10.892;2023-06-14T09:58:54;3.50;;;3.10;;
5303;SDS011;2674;49.722;10.892;2023-06-14T10:01:21;4.10;;;2.97;;
5303;SDS011;2674;49.722;10.892;2023-06-14T10:03:50;8.63;;;2.73;;
5303;SDS011;2674;49.722;10.892;2023-06-14T10:06:18;3.07;;;2.77;;
5303;SDS011;2674;49.722;10.892;2023-06-14T10:08:49;3.83;;;2.60;;
5303;SDS011;2674;49.722;10.892;2023-06-14T10:11:17;7.47;;;3.33;;
5303;SDS011;2674;49.722;10.892;2023-06-14T10:13:43;3.70;;;3.37;;
5303;SDS011;2674;49.722;10.892;2023-06-14T10:16:10;3.50;;;3.10;;
5303;SDS011;2674;49.722;10.892;2023-06-14T10:18:48;3.77;;;3.00;;
5303;SDS011;2674;49.722;10.892;2023-06-14T10:24:09;3.33;;;2.80;;
5303;SDS011;2674;49.722;10.892;2023-06-14T10:26:49;3.20;;;2.90;;
5303;SDS011;2674;49.722;10.892;2023-06-14T10:29:19;5.17;;;2.93;;
5303;SDS011;2674;49.722;10.892;2023-06-14T10:31:46;3.10;;;2.60;;
5303;SDS011;2674;49.722;10.892;2023-06-14T10:34:34;6.73;;;2.77;;
5303;SDS011;2674;49.722;10.892;2023-06-14T10:37:04;2.77;;;2.23;;
5303;SDS011;2674;49.722;10.892;2023-06-14T10:39:41;8.43;;;2.70;;
5303;SDS011;2674;49.722;10.892;2023-06-14T10:42:11;2.53;;;2.30;;
5303;SDS011;2674;49.722;10.892;2023-06-14T10:44:38;3.53;;;2.47;;
5303;SDS011;2674;49.722;10.892;2023-06-14T10:47:24;7.17;;;2.80;;
5303;SDS011;2674;49.722;10.892;2023-06-14T10:49:55;3.67;;;2.50;;
5303;SDS011;2674;49.722;10.892;2023-06-14T10:52:29;5.43;;;2.50;;
5303;SDS011;2674;49.722;10.892;2023-06-14T10:57:34;3.00;;;2.70;;
5303;SDS011;2674;49.722;10.892;2023-06-14T11:00:01;3.00;;;2.80;;
5303;SDS011;2674;49.722;10.892;2023-06-14T11:10:46;5.33;;;2.67;;
5303;SDS011;2674;49.722;10.892;2023-06-14T11:13:13;2.80;;;2.50;;
5303;SDS011;2674;49.722;10.892;2023-06-14T11:15:45;4.03;;;2.93;;
5303;SDS011;2674;49.722;10.892;2023-06-14T11:18:13;3.80;;;2.60;;
5303;SDS011;2674;49.722;10.892;2023-06-14T11:20:41;6.70;;;2.77;;
5303;SDS011;2674;49.722;10.892;2023-06-14T11:23:07;5.13;;;2.53;;
5303;SDS011;2674;49.722;10.892;2023-06-14T11:25:33;3.20;;;2.70;;
5303;SDS011;2674;49.722;10.892;2023-06-14T11:27:59;9.00;;;3.00;;
5303;SDS011;2674;49.722;10.892;2023-06-14T11:30:25;6.30;;;2.93;;
5303;SDS011;2674;49.722;10.892;2023-06-14T11:32:52;3.57;;;2.20;;
5303;SDS011;2674;49.722;10.892;2023-06-14T11:35:19;2.70;;;2.50;;
5303;SDS011;2674;49.722;10.892;2023-06-14T11:37:48;8.93;;;2.80;;
5303;SDS011;2674;49.722;10.892;2023-06-14T11:40:17;3.77;;;2.90;;
5303;SDS011;2674;49.722;10.892;2023-06-14T11:42:43;3.00;;;2.70;;
5303;SDS011;2674;49.722;10.892;2023-06-14T11:45:10;3.00;;;2.80;;
5303;SDS011;2674;49.722;10.892;2023-06-14T11:47:38;5.13;;;2.97;;
5303;SDS011;2674;49.722;10.892;2023-06-14T11:50:05;2.73;;;2.50;;
5303;SDS011;2674;49.722;10.892;2023-06-14T11:52:36;3.90;;;2.50;;
5303;SDS011;2674;49.722;10.892;2023-06-14T11:55:03;6.03;;;2.60;;
5303;SDS011;2674;49.722;10.892;2023-06-14T11:57:35;3.20;;;2.50;;
5303;SDS011;2674;49.722;10.892;2023-06-14T12:00:04;2.80;;;2.60;;
5303;SDS011;2674;49.722;10.892;2023-06-14T12:02:37;2.80;;;2.60;;
5303;SDS011;2674;49.722;10.892;2023-06-14T12:05:04;2.53;;;2.33;;
5303;SDS011;2674;49.722;10.892;2023-06-14T12:07:32;2.53;;;2.33;;
5303;SDS011;2674;49.722;10.892;2023-06-14T12:12:24;3.23;;;2.67;;
5303;SDS011;2674;49.722;10.892;2023-06-14T12:14:52;3.33;;;2.70;;
5303;SDS011;2674;49.722;10.892;2023-06-14T12:17:21;4.43;;;2.50;;
5303;SDS011;2674;49.722;10.892;2023-06-14T12:19:48;11.63;;;2.33;;
5303;SDS011;2674;49.722;10.892;2023-06-14T12:22:18;2.40;;;2.23;;
5303;SDS011;2674;49.722;10.892;2023-06-14T12:24:44;3.33;;;2.30;;
5303;SDS011;2674;49.722;10.892;2023-06-14T12:27:11;4.10;;;2.70;;
5303;SDS011;2674;49.722;10.892;2023-06-14T12:29:41;5.80;;;2.83;;
5303;SDS011;2674;49.722;10.892;2023-06-14T12:32:10;5.90;;;2.30;;
5303;SDS011;2674;49.722;10.892;2023-06-14T12:34:37;2.90;;;2.37;;
5303;SDS011;2674;49.722;10.892;2023-06-14T12:37:03;2.67;;;2.47;;
5303;SDS011;2674;49.722;10.892;2023-06-14T12:39:31;2.67;;;2.47;;
5303;SDS011;2674;49.722;10.892;2023-06-14T12:41:57;2.70;;;2.50;;
5303;SDS011;2674;49.722;10.892;2023-06-14T12:44:24;2.73;;;2.53;;
5303;SDS011;2674;49.722;10.892;2023-06-14T12:46:50;2.90;;;2.70;;
5303;SDS011;2674;49.722;10.892;2023-06-14T12:49:19;3.70;;;1.97;;
5303;SDS011;2674;49.722;10.892;2023-06-14T12:51:45;3.20;;;2.80;;
5303;SDS011;2674;49.722;10.892;2023-06-14T12:54:12;4.33;;;2.83;;
5303;SDS011;2674;49.722;10.892;2023-06-14T12:56:39;2.80;;;2.60;;
5303;SDS011;2674;49.722;10.892;2023-06-14T12:59:06;4.40;;;2.53;;
5303;SDS011;2674;49.722;10.892;2023-06-14T13:01:32;2.50;;;2.40;;
5303;SDS011;2674;49.722;10.892;2023-06-14T13:03:58;2.77;;;2.40;;
5303;SDS011;2674;49.722;10.892;2023-06-14T13:06:24;3.30;;;2.40;;
5303;SDS011;2674;49.722;10.892;2023-06-14T13:08:50;1.97;;;1.87;;
5303;SDS011;2674;49.722;10.892;2023-06-14T13:11:16;2.40;;;2.30;;
5303;SDS011;2674;49.722;10.892;2023-06-14T13:13:42;2.00;;;1.90;;
5303;SDS011;2674;49.722;10.892;2023-06-14T13:16:07;3.30;;;3.00;;
5303;SDS011;2674;49.722;10.892;2023-06-14T13:18:33;2.60;;;2.40;;
5303;SDS011;2674;49.722;10.892;2023-06-14T13:20:59;2.57;;;2.47;;
5303;SDS011;2674;49.722;10.892;2023-06-14T13:23:26;7.90;;;2.97;;
5303;SDS011;2674;49.722;10.892;2023-06-14T13:25:52;4.77;;;2.83;;
5303;SDS011;2674;49.722;10.892;2023-06-14T13:28:18;4.40;;;2.73;;
5303;SDS011;2674;49.722;10.892;2023-06-14T13:30:44;13.13;;;2.50;;
5303;SDS011;2674;49.722;10.892;2023-06-14T13:33:10;3.53;;;2.67;;
5303;SDS011;2674;49.722;10.892;2023-06-14T13:35:36;3.80;;;2.40;;
5303;SDS011;2674;49.722;10.892;2023-06-14T13:38:01;2.77;;;2.57;;
5303;SDS011;2674;49.722;10.892;2023-06-14T13:40:27;2.73;;;2.43;;
5303;SDS011;2674;49.722;10.892;2023-06-14T13:42:55;4.40;;;2.83;;
5303;SDS011;2674;49.722;10.892;2023-06-14T13:45:20;3.23;;;2.47;;
5303;SDS011;2674;49.722;10.892;2023-06-14T13:47:46;3.03;;;2.27;;
5303;SDS011;2674;49.722;10.892;2023-06-14T13:50:13;3.90;;;2.20;;
5303;SDS011;2674;49.722;10.892;2023-06-14T13:52:39;2.40;;;2.30;;
5303;SDS011;2674;49.722;10.892;2023-06-14T13:55:05;2.70;;;2.20;;
5303;SDS011;2674;49.722;10.892;2023-06-14T13:57:31;3.90;;;2.47;;
5303;SDS011;2674;49.722;10.892;2023-06-14T13:59:57;6.77;;;2.50;;
5303;SDS011;2674;49.722;10.892;2023-06-14T14:02:26;2.83;;;2.20;;
5303;SDS011;2674;49.722;10.892;2023-06-14T14:04:55;3.90;;;2.87;;
5303;SDS011;2674;49.722;10.892;2023-06-14T14:07:21;2.20;;;2.10;;
5303;SDS011;2674;49.722;10.892;2023-06-14T14:09:47;4.00;;;2.63;;
5303;SDS011;2674;49.722;10.892;2023-06-14T14:12:13;2.03;;;1.90;;
5303;SDS011;2674;49.722;10.892;2023-06-14T14:14:42;10.23;;;2.80;;
5303;SDS011;2674;49.722;10.892;2023-06-14T14:17:08;8.13;;;2.67;;
5303;SDS011;2674;49.722;10.892;2023-06-14T14:19:34;2.60;;;2.30;;
5303;SDS011;2674;49.722;10.892;2023-06-14T14:22:00;4.73;;;2.40;;
5303;SDS011;2674;49.722;10.892;2023-06-14T14:24:26;2.30;;;2.10;;
5303;SDS011;2674;49.722;10.892;2023-06-14T14:26:52;3.37;;;2.37;;
5303;SDS011;2674;49.722;10.892;2023-06-14T14:29:21;6.70;;;2.03;;
5303;SDS011;2674;49.722;10.892;2023-06-14T14:31:48;2.47;;;2.27;;
5303;SDS011;2674;49.722;10.892;2023-06-14T14:34:13;2.10;;;2.00;;
5303;SDS011;2674;49.722;10.892;2023-06-14T14:36:39;4.00;;;2.50;;
5303;SDS011;2674;49.722;10.892;2023-06-14T14:39:07;6.73;;;1.97;;
5303;SDS011;2674;49.722;10.892;2023-06-14T14:41:33;5.80;;;2.20;;
5303;SDS011;2674;49.722;10.892;2023-06-14T14:43:59;2.50;;;2.30;;
5303;SDS011;2674;49.722;10.892;2023-06-14T14:46:26;2.20;;;2.10;;
5303;SDS011;2674;49.722;10.892;2023-06-14T14:48:53;1.97;;;1.87;;
5303;SDS011;2674;49.722;10.892;2023-06-14T14:51:19;2.20;;;2.10;;
5303;SDS011;2674;49.722;10.892;2023-06-14T14:53:45;7.50;;;2.53;;
5303;SDS011;2674;49.722;10.892;2023-06-14T14:56:10;3.00;;;2.20;;
5303;SDS011;2674;49.722;10.892;2023-06-14T14:58:37;4.30;;;2.50;;
5303;SDS011;2674;49.722;10.892;2023-06-14T15:01:03;3.40;;;2.30;;
5303;SDS011;2674;49.722;10.892;2023-06-14T15:03:30;3.47;;;2.17;;
5303;SDS011;2674;49.722;10.892;2023-06-14T15:05:57;5.87;;;2.30;;
5303;SDS011;2674;49.722;10.892;2023-06-14T15:08:22;2.57;;;2.23;;
5303;SDS011;2674;49.722;10.892;2023-06-14T15:10:48;2.40;;;2.17;;
5303;SDS011;2674;49.722;10.892;2023-06-14T15:13:14;3.17;;;2.33;;
5303;SDS011;2674;49.722;10.892;2023-06-14T15:15:40;2.53;;;2.33;;
5303;SDS011;2674;49.722;10.892;2023-06-14T15:18:06;2.63;;;2.37;;
5303;SDS011;2674;49.722;10.892;2023-06-14T15:20:32;3.67;;;2.43;;
5303;SDS011;2674;49.722;10.892;2023-06-14T15:22:59;2.40;;;2.20;;